Latest Coastal Weather Observations for Esperance

IDW60701

Issued at 4:28 pm WST Wednesday 4 March 2015 (issued every 10 minutes, with the page automatically refreshed every 10 minutes)

About coastal observations | Map of coastal stations | Coastal observations for WA | Marine services | Other Formats
Station Details ID: 009789 Name: ESPERANCE Lat: -33.83 Lon: 121.89 Height: 25.0 m
Data from the previous 72 hours. | See also: Recent months at Esperance
Date/Time
WST
Temp

°C
Wind Pressure Rain
since 9am
mm
Weather Cloud Vis
km
Sea
Height
m
Swell
Dir
 
Speed
knots
Gust
knots
hPa Trend Height
m
Period
s
Dir
04/04:00pm 20.8 SSE 13 17 1025.0 - 0.0 - Mostly clear 10 - - - -
04/03:30pm 21.0 SSE 14 19 1025.0 - 0.0 - Mostly clear 10 - - - -
04/03:00pm 20.8 SSE 15 19 1024.8 R 0.0 Fine Partly cloudy 40 - - - -
04/02:30pm 21.5 SSE 14 17 1024.9 - 0.0 - Mostly clear 10 - - - -
04/02:00pm 21.2 SSE 13 17 1024.9 - 0.0 - Mostly clear 10 - - - -
04/01:30pm 21.4 SSE 13 16 1024.9 - 0.0 - Mostly clear 10 - - - -
04/01:00pm 21.3 SSE 12 15 1025.3 - 0.0 - Mostly clear 10 - - - -
04/12:30pm 21.2 SSE 11 17 1025.5 - 0.0 - Mostly clear 10 - - - -
04/12:00pm 21.5 SE 12 16 1025.6 R 0.0 Fine Partly cloudy 40 - - - -
04/11:30am 21.3 SSE 12 16 1025.9 - 0.0 - Mostly clear 10 - - - -
04/11:00am 20.7 SSE 11 16 1026.2 - 0.0 - Partly cloudy 10 - - - -
04/10:00am 19.6 SSE 8 11 1026.6 - 0.0 - Partly cloudy 10 - - - -
04/09:30am 20.0 SSE 9 11 1026.4 - 0.0 - Partly cloudy 10 - - - -
04/08:00am 19.2 SSW 2 4 1025.7 - 0.0 - Mostly clear 10 - - - -
04/07:00am 18.0 N 4 5 1025.2 - 0.0 - Mostly cloudy 10 - - - -
04/06:30am 17.8 CALM 0 0 1024.8 - 0.0 - Mostly clear 10 - - - -
04/06:00am 17.5 CALM 0 0 1024.5 R 0.0 Fine Mostly cloudy 30 - - - -
04/05:30am 17.3 CALM 0 0 1024.3 - 0.0 - Cloudy 10 - - - -
04/05:00am 17.1 CALM 0 0 1023.7 - 0.0 - Cloudy 10 - - - -
04/04:30am 17.0 NE 4 5 1023.4 - 0.0 - Cloudy 10 - - - -
04/04:00am 17.0 NNE 3 4 1023.2 - 0.0 - Cloudy 10 - - - -
04/03:30am 17.4 NNE 3 4 1023.3 - 0.0 - Cloudy 10 - - - -
04/03:00am 17.4 CALM 0 0 1023.1 F 0.0 - Cloudy 10 - - - -
04/02:30am 17.4 CALM 0 0 1023.2 - 0.0 - Cloudy 10 - - - -
04/02:00am 17.7 ENE 3 4 1023.1 - 0.0 - Partly cloudy 10 - - - -
04/01:30am 18.0 ESE 3 5 1023.2 - 0.0 - Partly cloudy 10 - - - -
04/01:00am 18.1 ESE 4 5 1023.5 - 0.0 - Partly cloudy 10 - - - -
04/12:30am 18.4 ESE 4 5 1023.6 - 0.0 - Cloudy 10 - - - -
04/12:00am 17.8 SE 4 4 1023.7 R 0.0 - Mostly cloudy 10 - - - -
 
Date/Time
WST
Temp

°C
Wind Pressure Rain
since 9am
mm
Weather Cloud Vis
km
Sea
Height
m
Swell
Dir
 
Speed
knots
Gust
knots
hPa Trend Height
m
Period
s
Dir
03/11:30pm 17.9 E 4 5 1023.6 - 0.0 - Partly cloudy 10 - - - -
03/11:00pm 18.1 ESE 4 6 1023.6 - 0.0 - Partly cloudy 10 - - - -
03/10:30pm 19.1 ESE 5 8 1023.7 - 0.0 - Partly cloudy 10 - - - -
03/10:00pm 19.4 SE 8 11 1023.8 - 0.0 - Partly cloudy 10 - - - -
03/09:30pm 19.4 SE 9 14 1023.7 - 0.0 - Partly cloudy 10 - - - -
03/09:00pm 19.3 SE 11 16 1023.9 R 0.0 - Partly cloudy 10 - - - -
03/08:30pm 19.5 SE 11 17 1023.7 - 0.0 - Partly cloudy 10 - - - -
03/08:00pm 19.5 SE 10 14 1023.5 - 0.0 - Partly cloudy 10 - - - -
03/07:30pm 19.6 SE 12 15 1023.0 - 0.0 - Mostly clear 10 - - - -
03/07:00pm 19.6 SE 10 14 1022.6 - 0.0 - Mostly clear 10 - - - -
03/06:30pm 19.7 SSE 13 18 1022.3 - 0.0 - Mostly clear 10 - - - -
03/06:00pm 20.1 SSE 13 17 1022.0 F 0.0 Fine Mostly clear 30 - - - -
03/05:30pm 20.3 SSE 13 17 1022.0 - 0.0 - Mostly clear 10 - - - -
03/05:00pm 20.7 SSE 13 17 1021.8 - 0.0 - Mostly clear 10 - - - -
03/04:30pm 21.0 SSE 14 17 1021.8 - 0.0 - Mostly clear 10 - - - -
03/04:00pm 21.4 SSE 14 19 1021.8 - 0.0 - - 10 - - - -
03/03:30pm 21.2 SSE 13 19 1021.6 - 0.0 - Mostly clear 10 - - - -
03/03:00pm 21.7 SSE 15 20 1021.6 R 0.0 Fine Mostly clear 30 - - - -
03/02:30pm 22.2 SSE 14 19 1021.7 - 0.0 - Mostly clear 10 - - - -
03/02:00pm 21.6 SSE 15 19 1021.9 - 0.0 - Mostly clear 10 - - - -
03/01:30pm 22.1 SSE 15 18 1022.0 - 0.0 - Mostly clear 10 - - - -
03/01:00pm 21.7 SSE 15 19 1022.1 - 0.0 - Mostly clear 10 - - - -
03/12:30pm 22.1 SSE 14 17 1022.2 - 0.0 - Mostly clear 10 - - - -
03/12:00pm 22.4 SSE 13 16 1022.2 R 0.0 Fine Mostly clear 35 - - - -
03/11:30am 22.6 SSE 13 16 1022.4 - 0.0 - Mostly clear 10 - - - -
03/11:00am 22.2 SSE 13 16 1022.7 - 0.0 - Mostly clear 10 - - - -
03/10:30am 22.5 SSE 11 13 1022.9 - 0.0 - Mostly clear 10 - - - -
03/10:00am 22.3 SSE 9 11 1022.9 - 0.0 - - 10 - - - -
03/09:30am 21.7 SSE 9 11 1022.9 - 0.0 - - 10 - - - -
03/09:00am 21.6 SE 8 10 1022.9 F 0.4 Fine Mostly clear 30 - - - -
03/08:30am 21.4 SE 6 9 1022.8 - 0.2 - Mostly clear 10 - - - -
03/08:00am 20.9 E 5 7 1022.8 - 0.2 - Mostly clear 10 - - - -
03/07:30am 19.9 ENE 5 7 1022.8 - 0.2 - Mostly clear 10 - - - -
03/07:00am 17.8 CALM 0 0 1022.8 - 0.2 - Mostly clear 10 - - - -
03/06:30am 17.1 CALM 0 0 1022.6 - 0.2 - Cloudy 10 - - - -
03/06:00am 16.9 CALM 0 0 1022.3 R 0.2 Fine Mostly cloudy 25 - - - -
03/05:30am 17.0 NNE 2 3 1022.0 - 0.2 - Partly cloudy 10 - - - -
03/05:00am 17.0 CALM 0 0 1021.6 - 0.2 - Partly cloudy 10 - - - -
03/04:30am 17.1 CALM 0 0 1021.4 - 0.2 - Partly cloudy 10 - - - -
03/04:00am 17.0 CALM 0 0 1021.3 - 0.2 - Cloudy 10 - - - -
03/03:30am 16.8 NNW 2 4 1021.2 - 0.2 - Partly cloudy 10 - - - -
03/03:00am 16.9 NNE 4 5 1021.1 R 0.2 - Cloudy 10 - - - -
03/02:30am 16.7 NNE 4 6 1020.9 - 0.2 - Cloudy 10 - - - -
03/02:00am 16.8 NE 4 5 1020.8 - 0.2 - Cloudy 10 - - - -
03/01:30am 17.0 ENE 4 6 1020.9 - 0.2 - Cloudy 10 - - - -
03/01:00am 16.9 NE 5 7 1021.2 - 0.2 - Partly cloudy 10 - - - -
03/12:30am 17.2 ENE 5 7 1021.1 - 0.2 - Cloudy 10 - - - -
03/12:00am 17.0 ENE 4 6 1021.2 R 0.2 - Cloudy 10 - - - -
 
Date/Time
WST
Temp

°C
Wind Pressure Rain
since 9am
mm
Weather Cloud Vis
km
Sea
Height
m
Swell
Dir
 
Speed
knots
Gust
knots
hPa Trend Height
m
Period
s
Dir
02/11:30pm 17.0 ENE 4 5 1021.1 - 0.2 - Partly cloudy 10 - - - -
02/11:00pm 17.5 E 5 9 1021.1 - 0.2 - - 10 - - - -
02/10:30pm 18.1 E 6 10 1021.1 - 0.2 - Partly cloudy 10 - - - -
02/10:00pm 18.8 ESE 9 12 1021.0 - 0.2 - Partly cloudy 10 - - - -
02/09:30pm 18.8 ESE 10 15 1020.9 - 0.2 - Partly cloudy 10 - - - -
02/09:11pm 18.9 ESE 12 15 1020.7 - 0.2 - Partly cloudy 10 - - - -
02/09:00pm 18.9 SE 11 15 1020.7 R 0.2 - Cloudy 10 - - - -
02/08:30pm 18.8 SE 11 16 1020.3 - 0.2 - Partly cloudy 10 - - - -
02/08:00pm 18.7 SE 12 17 1019.7 - 0.2 - Mostly clear 10 - - - -
02/07:30pm 18.9 SE 14 19 1018.9 - 0.2 - Mostly clear 10 - - - -
02/07:00pm 19.2 SE 14 20 1018.3 - 0.2 - Mostly clear 10 - - - -
02/06:30pm 19.7 SE 14 19 1017.9 - 0.2 - Partly cloudy 10 - - - -
02/06:00pm 19.9 SSE 15 21 1017.7 R 0.2 Fine Partly cloudy 30 - - - -
02/05:30pm 19.9 SSE 15 20 1017.6 - 0.2 - Cloudy 10 - - - -
02/05:00pm 20.1 SSE 14 21 1017.6 - 0.2 - Cloudy 10 - - - -
02/04:30pm 20.1 SSE 15 19 1017.3 - 0.2 - Mostly clear 10 - - - -
02/04:00pm 20.3 SSE 17 23 1017.0 - 0.2 - Mostly clear 10 - - - -
02/03:30pm 21.5 SSE 16 23 1016.8 - 0.2 - Mostly clear 10 - - - -
02/03:00pm 21.6 SSE 17 21 1016.5 R 0.2 Fine Mostly cloudy 30 - - - -
02/02:30pm 21.8 SSE 16 22 1016.6 - 0.2 - Mostly clear 10 - - - -
02/02:00pm 22.1 SE 17 22 1016.7 - 0.2 - Partly cloudy 10 - - - -
02/01:30pm 21.7 SE 16 21 1016.6 - 0.2 - Partly cloudy 10 - - - -
02/01:00pm 21.8 SSE 18 24 1016.8 - 0.2 - Mostly clear 10 - - - -
02/12:30pm 22.4 SSE 16 21 1016.7 - 0.2 - Mostly clear 10 - - - -
02/12:00pm 22.1 SSE 16 20 1016.7 R 0.2 Fine Mostly cloudy 25 - - - -
02/11:30am 21.3 SE 13 17 1017.3 - 0.2 - Mostly clear 10 - - - -
02/11:00am 21.0 SE 11 14 1017.6 - 0.2 - Mostly clear 10 - - - -
02/10:30am 20.2 SE 13 19 1017.4 - 0.2 - Mostly clear 10 - - - -
02/10:00am 20.6 SE 14 19 1017.4 - 0.2 - Mostly clear 10 - - - -
02/09:30am 19.1 SE 8 13 1017.5 - 0.2 Rain Mostly clear 10 - - - -
02/09:03am 18.2 SE 10 16 1017.4 - 0.0 Rain Mostly clear 7 - - - -
02/09:00am 18.3 SE 10 16 1017.4 R 0.0 Rain Mostly cloudy 10 - - - -
02/08:44am 18.8 SE 12 17 1017.2 - 0.0 Rain Mostly clear 7 - - - -
02/08:30am 19.6 SE 11 15 1017.1 - 0.0 - Mostly clear 10 - - - -
02/08:00am 19.7 SE 11 14 1016.7 - 0.0 - Mostly clear 10 - - - -
02/07:30am 19.7 SE 9 13 1016.5 - 0.0 - Mostly clear 10 - - - -
02/07:00am 19.6 ESE 9 13 1016.0 - 0.0 - Mostly clear 10 - - - -
02/06:30am 19.3 ESE 8 12 1015.9 - 0.0 - Cloudy 10 - - - -
02/06:00am 19.1 ESE 9 12 1015.4 R 0.0 Distant precip. Mostly cloudy 20 - - - -
02/05:30am 18.7 ESE 8 11 1015.3 - 0.0 - Partly cloudy 10 - - - -
02/05:00am 18.6 ESE 8 11 1015.1 - 0.0 - Partly cloudy 10 - - - -
02/04:30am 18.5 ESE 7 10 1014.8 - 0.0 - Cloudy 10 - - - -
02/04:00am 18.4 SE 7 9 1014.4 - 0.0 - Partly cloudy 10 - - - -
02/03:30am 18.4 E 5 7 1014.3 - 0.0 - Cloudy 10 - - - -
02/03:00am 18.7 ESE 6 9 1014.2 R 0.0 - Cloudy 10 - - - -
02/02:30am 18.6 ESE 5 8 1014.1 - 0.0 - Cloudy 10 - - - -
02/02:00am 18.8 E 7 11 1014.0 - 0.0 - Cloudy 10 - - - -
02/01:30am 18.9 E 7 10 1013.6 - 0.0 - Cloudy 10 - - - -
02/01:00am 19.0 E 7 13 1013.9 - 0.0 - Cloudy 10 - - - -
02/12:30am 19.1 E 7 11 1014.0 - 0.0 - Cloudy 10 - - - -
02/12:00am 19.4 E 8 12 1013.9 R 0.0 - Cloudy 10 - - - -
 
Date/Time
WST
Temp

°C
Wind Pressure Rain
since 9am
mm
Weather Cloud Vis
km
Sea
Height
m
Swell
Dir
 
Speed
knots
Gust
knots
hPa Trend Height
m
Period
s
Dir
01/11:30pm 19.6 ENE 7 12 1013.7 - 0.0 - Cloudy 10 - - - -
01/11:00pm 19.9 E 8 14 1013.6 - 0.0 - Cloudy 10 - - - -
01/10:30pm 20.1 E 9 13 1013.5 - 0.0 - Cloudy 10 - - - -
01/10:00pm 20.5 ENE 7 12 1013.4 - 0.0 - Cloudy 10 - - - -
01/09:30pm 21.0 E 9 16 1013.2 - 0.0 - Cloudy 10 - - - -
01/09:00pm 21.5 E 8 14 1013.1 R 0.0 - Mostly cloudy 10 - - - -
01/08:30pm 22.0 ENE 9 15 1012.6 - 0.0 - Cloudy 10 - - - -
01/08:00pm 22.3 ENE 10 17 1012.7 - 0.0 - Cloudy 10 - - - -
01/07:30pm 21.5 ESE 10 14 1012.0 - 0.0 - Cloudy 10 - - - -
01/07:00pm 21.1 ESE 13 18 1011.7 - 0.0 - Cloudy 10 - - - -
01/06:30pm 21.1 ESE 13 19 1011.7 - 0.0 - Partly cloudy 10 - - - -
01/06:00pm 21.4 ESE 12 19 1011.7 F 0.0 Fine Mostly cloudy 25 - - - -
01/05:30pm 21.8 SE 13 19 1011.6 - 0.0 - Partly cloudy 10 - - - -
01/05:00pm 21.8 SE 14 20 1011.3 - 0.0 - Partly cloudy 10 - - - -
01/04:30pm 21.5 SE 17 24 1011.1 - 0.0 - Partly cloudy 10 - - - -

Other Formats:

Comma delimited format used in spreadsheet applications
http://www.bom.gov.au/fwo/IDW60701/IDW60701.94638.axf

JavaScript Object Notation format (JSON) in row-major order
http://www.bom.gov.au/fwo/IDW60701/IDW60701.94638.json